Pagrindinis puslapis
METAR-TAF:

METAR-TAF

Oro uostai :

Kajanis, Suomija

platuma: 64-17N, ilguma: 027-41E, Aukštis: 143 m

Dabartinis oras

Ataskaita buvo paskelbta 15 minutes, ne 11:50 UTC
Vėjas 6 kt iš Pietų/Pietvakarių
Temperatūra -7°C
Drėgmė 93%
Slėgis 1018 hPa
Matomumas 10 km arba daugiau
nėra debesų žemiau 1500 m ir nėra kamuolinių lietaus debesų

METAR: EFKI 271150Z AUTO 20006KT CAVOK M07/M08 Q1018

Laikas: 14:05 (12:05 UTC)

Prognozė

Ataskaita buvo paskelbta 39 minutes, ne 11:26 UTC
Prognozė galioja nuo 27 metu 12 UTC su 27 metu 18 UTC
Vėjas 6 kt iš Pietų/Pietvakarių
Matomumas 10 km arba daugiau
Mažai debesys ne aukštis 800 ft

TAF: EFKI 271126Z 2712/2718 20006KT 9999 FEW008

Orai ataskaitas ir orų prognozės (METAR, TAF).

turimą stotys yra geltonos ir raudonos taškus žemėlapyje.

Perkelti pele per norėdami pamatyti stoties vardą.

Tada spustelėkite, norėdami matyti oro stebėjimo ir prognozės.

Norėdami pakeisti žemėlapį: spustelėkite ant žalios mygtukų su juodo kryžiaus žemyn,; žalią mygtuką su brūkšneliu, jei norite nutolinti; arba žalių rodyklių gretimoms žemėlapius.


METAR-TAF: